Time;durP1;ratioP1;P1;durP2;ratioP2;P2;SDS_P1;SDS_P2;PMS_P1;PMS_P2;Temp;Humidity;BMP_temperature;BMP_pressure;BME280_temperature;BME280_humidity;BME280_pressure;Samples;Min_cycle;Max_cycle;Signal;HPM_P1;HPM_P2
2023/07/02 00:01:12;;;;;;;26.85;12.80;;;;;;;17.55;99.20;96895.09;10326867;28;20112;-50
2023/07/02 00:06:11;;;;;;;22.45;12.30;;;;;;;17.58;99.68;96899.34;10326683;28;20084;-51
2023/07/02 00:11:12;;;;;;;23.92;12.55;;;;;;;17.47;100.00;96891.06;10326841;28;20057;-49
2023/07/02 00:16:11;;;;;;;23.17;12.60;;;;;;;17.45;100.00;96906.91;10323918;28;20507;-49
2023/07/02 00:21:13;;;;;;;24.23;13.40;;;;;;;17.38;100.00;96883.59;10322926;28;20570;-48
2023/07/02 00:26:12;;;;;;;22.67;13.80;;;;;;;17.39;100.00;96904.50;10323592;28;20489;-49
2023/07/02 00:31:11;;;;;;;27.80;13.15;;;;;;;17.38;100.00;96899.31;10323111;28;20474;-48
2023/07/02 00:36:14;;;;;;;26.58;12.13;;;;;;;17.35;100.00;96888.06;10323048;28;20108;-50
2023/07/02 00:41:13;;;;;;;26.75;13.52;;;;;;;17.42;100.00;96882.56;10322644;28;20744;-47
2023/07/02 00:46:25;;;;;;;24.02;12.82;;;;;;;17.45;100.00;96891.16;10339824;28;20516;-51
2023/07/02 00:51:27;;;;;;;24.98;13.43;;;;;;;17.46;100.00;96884.97;10363831;28;20163;-50
2023/07/02 00:56:26;;;;;;;25.45;13.05;;;;;;;17.34;100.00;96860.13;10324616;28;20141;-50
2023/07/02 01:01:33;;;;;;;27.08;12.38;;;;;;;17.40;100.00;96879.97;10323403;28;20084;-48
2023/07/02 01:06:34;;;;;;;19.90;11.32;;;;;;;16.98;100.00;96851.16;10329849;28;20160;-50
2023/07/02 01:11:35;;;;;;;22.33;11.13;;;;;;;17.23;100.00;96883.31;10329598;28;20069;-50
2023/07/02 01:16:35;;;;;;;20.63;11.05;;;;;;;17.23;100.00;96885.94;10329891;28;20153;-50
2023/07/02 01:21:34;;;;;;;15.85;9.52;;;;;;;17.03;100.00;96888.56;10328894;28;20583;-48
2023/07/02 01:26:34;;;;;;;21.75;10.85;;;;;;;16.77;100.00;96838.00;10329409;28;20132;-50
2023/07/02 01:31:34;;;;;;;29.70;11.25;;;;;;;17.21;100.00;96914.00;10330253;28;20084;-48
2023/07/02 01:36:33;;;;;;;24.27;10.82;;;;;;;17.30;100.00;96911.00;10328150;28;20064;-48
2023/07/02 01:41:41;;;;;;;19.33;10.40;;;;;;;17.29;99.63;96897.97;10328805;28;20099;-48
2023/07/02 01:46:40;;;;;;;18.03;9.73;;;;;;;17.29;99.78;96898.81;10349605;28;20151;-50
2023/07/02 01:51:39;;;;;;;20.77;10.13;;;;;;;17.28;99.46;96897.09;10328396;28;20711;-48
2023/07/02 01:56:38;;;;;;;19.58;10.13;;;;;;;17.29;99.38;96888.31;10368333;28;20027;-48
2023/07/02 02:01:40;;;;;;;18.67;10.48;;;;;;;17.30;99.51;96882.16;10370374;28;20456;-49
2023/07/02 02:06:40;;;;;;;19.88;10.45;;;;;;;17.30;99.51;96878.69;10368279;28;20112;-50
2023/07/02 02:11:44;;;;;;;16.90;10.18;;;;;;;17.26;99.36;96866.59;10364389;28;20064;-48
2023/07/02 02:16:46;;;;;;;23.08;11.60;;;;;;;17.27;100.00;96863.94;10330288;28;20075;-51
2023/07/02 02:21:45;;;;;;;23.65;11.75;;;;;;;17.26;100.00;96857.00;10364078;28;20132;-49
2023/07/02 02:26:44;;;;;;;19.70;10.68;;;;;;;17.19;100.00;96854.66;10330171;28;20107;-48
2023/07/02 02:31:43;;;;;;;19.35;11.25;;;;;;;17.25;100.00;96850.03;10365554;28;20043;-50
2023/07/02 02:36:43;;;;;;;18.05;11.52;;;;;;;17.29;100.00;96861.25;10325920;28;20489;-50
2023/07/02 02:41:42;;;;;;;17.23;10.98;;;;;;;17.30;100.00;96848.06;10328008;28;20071;-49
2023/07/02 02:46:41;;;;;;;17.13;10.93;;;;;;;17.37;100.00;96864.38;10352052;28;20052;-50
2023/07/02 02:51:40;;;;;;;16.10;9.82;;;;;;;17.33;100.00;96868.94;10327437;28;20403;-50
2023/07/02 02:56:39;;;;;;;17.60;11.15;;;;;;;17.48;100.00;96851.66;10328475;28;20720;-47
2023/07/02 03:01:38;;;;;;;17.33;9.35;;;;;;;17.54;100.00;96846.16;10366030;28;20404;-51
2023/07/02 03:06:37;;;;;;;14.90;9.32;;;;;;;17.52;100.00;96836.66;10326572;28;20068;-48
2023/07/02 03:11:36;;;;;;;19.92;9.82;;;;;;;17.56;99.75;96867.91;10366393;28;20329;-51
2023/07/02 03:16:35;;;;;;;19.25;10.30;;;;;;;17.59;100.00;96847.72;10325164;28;20124;-49
2023/07/02 03:21:34;;;;;;;15.23;9.13;;;;;;;17.55;99.29;96855.72;10365456;28;20127;-52
2023/07/02 03:26:33;;;;;;;19.65;9.75;;;;;;;17.52;99.77;96858.50;10326829;28;20075;-48
2023/07/02 03:31:32;;;;;;;18.13;9.73;;;;;;;17.54;100.00;96863.66;10325600;28;20057;-51
2023/07/02 03:36:31;;;;;;;20.58;10.20;;;;;;;17.55;100.00;96868.00;10363003;28;20045;-49
2023/07/02 03:41:30;;;;;;;16.52;9.25;;;;;;;17.06;100.00;96843.84;10327556;28;20120;-50
2023/07/02 03:46:30;;;;;;;15.43;9.57;;;;;;;17.24;100.00;96882.41;10347629;28;20072;-51
2023/07/02 03:51:30;;;;;;;21.42;10.15;;;;;;;17.34;100.00;96885.50;10325392;28;20115;-49
2023/07/02 03:56:29;;;;;;;22.83;10.80;;;;;;;17.49;100.00;96869.09;10326573;28;20063;-49
2023/07/02 04:01:28;;;;;;;17.35;10.02;;;;;;;17.38;100.00;96892.34;10361277;28;20041;-47
2023/07/02 04:06:27;;;;;;;15.85;8.68;;;;;;;17.39;99.76;96899.28;10328504;28;20029;-52
2023/07/02 04:11:26;;;;;;;15.15;8.73;;;;;;;17.64;99.60;96885.13;10360172;28;20041;-48
2023/07/02 04:16:25;;;;;;;20.55;9.20;;;;;;;17.79;98.37;96886.25;10332021;28;20065;-51
2023/07/02 04:21:24;;;;;;;18.95;8.25;;;;;;;17.59;98.73;96894.94;10362642;28;20132;-48
2023/07/02 04:26:26;;;;;;;20.10;8.85;;;;;;;17.70;97.77;96903.22;10332195;28;20581;-48
2023/07/02 04:31:26;;;;;;;16.58;8.38;;;;;;;17.97;96.41;96907.28;10361854;28;20083;-51
2023/07/02 04:36:25;;;;;;;18.23;9.13;;;;;;;18.14;94.81;96919.66;10335187;28;20154;-49
2023/07/02 04:41:23;;;;;;;14.23;8.60;;;;;;;18.28;94.33;96921.66;10368591;28;20144;-50
2023/07/02 04:46:23;;;;;;;17.85;8.52;;;;;;;18.53;94.66;96924.03;10354332;28;20036;-49
2023/07/02 04:51:21;;;;;;;16.77;7.90;;;;;;;18.86;93.82;96918.16;10343332;28;20528;-51
2023/07/02 04:56:20;;;;;;;15.82;8.55;;;;;;;19.17;93.15;96917.50;10338287;28;20108;-48
2023/07/02 05:01:20;;;;;;;14.48;8.48;;;;;;;19.40;92.95;96928.69;10343285;28;20492;-47
2023/07/02 05:06:19;;;;;;;16.35;8.95;;;;;;;19.70;92.26;96926.34;10366443;28;20487;-51
2023/07/02 05:11:18;;;;;;;18.02;9.77;;;;;;;19.81;91.27;96905.59;10344748;28;20061;-48
2023/07/02 05:16:17;;;;;;;13.40;8.25;;;;;;;19.94;90.24;96931.28;10340749;28;20497;-50
2023/07/02 05:21:19;;;;;;;15.68;8.52;;;;;;;20.00;88.72;96936.19;10330293;28;20448;-49
2023/07/02 05:26:18;;;;;;;19.70;9.00;;;;;;;20.09;88.25;96943.63;10361310;28;20152;-49
2023/07/02 05:31:17;;;;;;;13.18;8.48;;;;;;;19.96;88.17;96947.84;10340449;28;20465;-51
2023/07/02 05:36:16;;;;;;;15.82;8.98;;;;;;;20.22;88.46;96944.69;10359634;28;20044;-47
2023/07/02 05:41:18;;;;;;;17.45;8.40;;;;;;;20.43;88.17;96948.00;10340928;28;20037;-50
2023/07/02 05:46:17;;;;;;;14.73;8.60;;;;;;;20.73;85.66;96949.91;10366392;28;20138;-47
2023/07/02 05:51:23;;;;;;;16.05;8.57;;;;;;;20.80;84.52;96922.28;10399824;28;20494;-46
2023/07/02 05:56:22;;;;;;;13.75;8.00;;;;;;;20.93;82.44;96938.25;10402737;28;20126;-48
2023/07/02 06:01:21;;;;;;;11.55;6.30;;;;;;;21.02;76.29;96950.09;10382068;28;20450;-50
2023/07/02 06:06:24;;;;;;;10.32;5.95;;;;;;;21.11;75.29;96942.50;10371932;28;20045;-51
2023/07/02 06:11:23;;;;;;;8.98;5.88;;;;;;;21.16;74.06;96946.69;10398497;28;20515;-48
2023/07/02 06:16:22;;;;;;;11.60;5.65;;;;;;;21.41;70.39;96947.00;10380543;28;20131;-50
2023/07/02 06:21:21;;;;;;;9.00;5.38;;;;;;;21.59;66.18;96941.59;10396939;28;20518;-48
2023/07/02 06:26:20;;;;;;;11.30;5.78;;;;;;;21.80;64.98;96927.13;10384541;28;20396;-49
2023/07/02 06:31:18;;;;;;;9.30;5.03;;;;;;;22.30;62.88;96936.47;10377223;28;20116;-49
2023/07/02 06:36:19;;;;;;;10.93;5.80;;;;;;;22.65;62.83;96919.34;10381888;28;20049;-50
2023/07/02 06:41:18;;;;;;;11.10;5.82;;;;;;;22.74;60.66;96929.38;10382995;28;20079;-48
2023/07/02 06:46:17;;;;;;;10.10;6.05;;;;;;;22.90;63.98;96929.25;10367958;28;20048;-49
2023/07/02 06:51:16;;;;;;;10.15;5.57;;;;;;;22.67;62.16;96819.59;10392503;28;20572;-49
2023/07/02 06:56:15;;;;;;;8.65;5.93;;;;;;;23.12;62.42;96875.81;10375907;28;20134;-50
2023/07/02 07:01:14;;;;;;;9.73;6.03;;;;;;;23.43;64.16;96930.22;10391013;28;20326;-50
2023/07/02 07:06:13;;;;;;;10.45;6.32;;;;;;;23.38;61.30;96934.97;10382222;28;20035;-49
2023/07/02 07:11:12;;;;;;;7.22;5.35;;;;;;;23.69;62.76;96938.25;10391028;28;20115;-51
2023/07/02 07:16:11;;;;;;;8.48;5.20;;;;;;;24.08;60.66;96940.00;10388874;28;20035;-50
2023/07/02 07:21:10;;;;;;;10.13;4.60;;;;;;;24.71;58.20;96938.31;10373513;28;20073;-50
2023/07/02 07:26:09;;;;;;;6.00;4.60;;;;;;;24.92;51.45;96932.41;10392476;28;20025;-49
2023/07/02 07:31:08;;;;;;;8.38;4.43;;;;;;;24.57;50.84;96923.38;10390219;28;20028;-49
2023/07/02 07:36:07;;;;;;;8.13;4.78;;;;;;;24.40;51.10;96939.59;10391884;28;20488;-48
2023/07/02 07:41:06;;;;;;;7.93;5.00;;;;;;;24.38;51.44;96931.78;10388885;28;20111;-50
2023/07/02 07:46:05;;;;;;;7.18;4.45;;;;;;;24.43;50.93;96929.63;10380705;28;20096;-49
2023/07/02 07:51:04;;;;;;;7.70;4.30;;;;;;;24.63;51.78;96936.16;10382085;28;20036;-49
2023/07/02 07:56:03;;;;;;;9.35;4.38;;;;;;;25.07;53.89;96933.97;10383637;28;20032;-49
2023/07/02 08:01:02;;;;;;;7.65;4.80;;;;;;;25.29;53.11;96934.13;10391195;28;20068;-50
2023/07/02 08:06:01;;;;;;;6.97;4.57;;;;;;;25.30;53.39;96932.28;10394386;28;20036;-49
2023/07/02 08:11:00;;;;;;;7.38;4.88;;;;;;;25.71;55.01;96942.53;10395340;28;20028;-47
2023/07/02 08:15:59;;;;;;;6.60;4.43;;;;;;;25.95;52.90;96941.63;10389961;28;20017;-49
2023/07/02 08:20:58;;;;;;;5.35;4.00;;;;;;;25.71;53.36;96870.78;10383614;28;20587;-51
2023/07/02 08:25:56;;;;;;;8.50;4.60;;;;;;;26.48;53.12;96927.81;10381031;28;20503;-48
2023/07/02 08:30:55;;;;;;;8.23;4.63;;;;;;;26.68;51.23;96928.91;10372180;28;20124;-50
2023/07/02 08:35:54;;;;;;;6.90;4.60;;;;;;;26.90;49.83;96931.56;10375641;28;20132;-47
2023/07/02 08:40:53;;;;;;;7.53;4.85;;;;;;;27.34;49.90;96936.94;10374555;28;20071;-49
2023/07/02 08:45:53;;;;;;;7.60;4.80;;;;;;;27.66;48.20;96941.41;10389506;28;20043;-49
2023/07/02 08:50:52;;;;;;;6.80;4.75;;;;;;;27.90;48.98;96944.72;10394406;28;20116;-49
2023/07/02 08:55:51;;;;;;;7.85;4.82;;;;;;;27.98;47.99;96933.38;10389492;28;20037;-50
2023/07/02 09:01:06;;;;;;;6.80;4.47;;;;;;;28.01;48.28;96936.66;10386711;28;20040;-47
2023/07/02 09:06:07;;;;;;;9.23;5.13;;;;;;;28.06;47.95;96936.25;10392640;28;20131;-48
2023/07/02 09:11:13;;;;;;;6.95;4.40;;;;;;;28.13;48.54;96924.13;10369523;28;20424;-48
2023/07/02 09:16:30;;;;;;;8.07;4.93;;;;;;;28.31;47.60;96923.50;10392535;28;20052;-51
2023/07/02 09:22:02;;;;;;;8.35;5.38;;;;;;;28.55;47.08;96916.03;10390824;28;20068;-48
2023/07/02 09:27:01;;;;;;;7.40;5.07;;;;;;;28.83;47.03;96924.34;10368200;28;20137;-51
2023/07/02 09:32:03;;;;;;;7.93;4.63;;;;;;;29.13;45.76;96922.56;10403137;28;20124;-49
2023/07/02 09:37:04;;;;;;;7.88;5.30;;;;;;;29.34;45.47;96917.97;10397882;28;20483;-49
2023/07/02 09:42:09;;;;;;;7.25;5.55;;;;;;;29.41;44.92;96920.94;10375453;28;20191;-48
2023/07/02 09:47:10;;;;;;;8.13;5.38;;;;;;;29.23;43.16;96916.25;10402232;28;20123;-49
2023/07/02 09:52:10;;;;;;;9.07;5.40;;;;;;;28.86;42.84;96913.38;10382295;28;20064;-48
2023/07/02 09:57:09;;;;;;;9.23;6.15;;;;;;;28.79;43.04;96915.72;10376785;28;20067;-51
2023/07/02 10:02:12;;;;;;;8.65;6.28;;;;;;;28.61;42.71;96909.31;10401550;28;20032;-48
2023/07/02 10:07:12;;;;;;;7.53;5.15;;;;;;;28.46;45.65;96898.16;10377753;28;20108;-48
2023/07/02 10:12:46;;;;;;;7.55;5.22;;;;;;;28.59;45.38;96904.09;10400503;28;20083;-48
2023/07/02 10:17:55;;;;;;;8.43;5.90;;;;;;;28.53;44.58;96903.81;10363608;28;20102;-51
2023/07/02 10:22:54;;;;;;;8.98;5.80;;;;;;;28.60;45.51;96904.97;10375545;28;20071;-49
2023/07/02 10:27:54;;;;;;;8.43;5.25;;;;;;;28.51;45.81;96858.56;10408029;28;20083;-49
2023/07/02 10:32:53;;;;;;;7.38;5.35;;;;;;;28.80;44.18;96892.53;10376196;28;20060;-48
2023/07/02 10:37:52;;;;;;;9.75;5.60;;;;;;;28.89;44.78;96886.38;10400055;28;20487;-48
2023/07/02 10:42:52;;;;;;;9.43;5.72;;;;;;;28.90;43.23;96879.19;10376588;28;20535;-49
2023/07/02 10:47:51;;;;;;;8.10;5.13;;;;;;;29.12;42.91;96867.44;10406765;28;20068;-51
2023/07/02 10:52:50;;;;;;;7.50;5.50;;;;;;;29.34;42.66;96853.84;10384786;28;20039;-48
2023/07/02 10:58:01;;;;;;;7.72;5.43;;;;;;;29.64;42.32;96857.34;10409499;28;20067;-50
2023/07/02 11:03:03;;;;;;;8.85;5.60;;;;;;;29.89;40.45;96867.47;10375404;28;20475;-49
2023/07/02 11:08:08;;;;;;;8.13;5.93;;;;;;;29.86;38.88;96865.09;10374978;28;20064;-50
2023/07/02 11:13:14;;;;;;;8.52;6.00;;;;;;;29.78;37.94;96862.25;10405062;28;20071;-48
2023/07/02 11:18:16;;;;;;;8.18;6.07;;;;;;;29.44;39.56;96864.53;10370877;28;20314;-50
2023/07/02 11:23:23;;;;;;;7.35;5.65;;;;;;;29.33;39.04;96859.34;10402550;28;20064;-48
2023/07/02 11:28:23;;;;;;;8.68;6.07;;;;;;;29.22;38.43;96847.75;10368484;28;20148;-50
2023/07/02 11:33:37;;;;;;;8.43;5.65;;;;;;;28.91;38.83;96854.22;10369329;28;20523;-50
2023/07/02 11:38:36;;;;;;;9.40;6.32;;;;;;;29.11;39.57;96844.38;10377206;28;20112;-50
2023/07/02 11:43:35;;;;;;;7.68;5.63;;;;;;;29.47;39.57;96835.69;10403244;28;20295;-50
2023/07/02 11:48:34;;;;;;;8.50;6.65;;;;;;;29.85;40.47;96836.63;10366971;28;20128;-49
2023/07/02 11:53:33;;;;;;;8.02;6.57;;;;;;;30.27;38.44;96838.06;10383360;28;20123;-48
2023/07/02 11:58:32;;;;;;;8.90;6.28;;;;;;;30.20;37.48;96845.00;10367778;28;20024;-49
2023/07/02 12:03:31;;;;;;;9.02;6.10;;;;;;;29.99;37.30;96846.03;10401252;28;20123;-48
2023/07/02 12:08:30;;;;;;;9.95;6.63;;;;;;;29.94;37.09;96856.34;10368908;28;20033;-50
2023/07/02 12:13:29;;;;;;;8.82;6.05;;;;;;;30.22;37.47;96846.53;10368784;28;20041;-50
2023/07/02 12:18:28;;;;;;;8.63;6.05;;;;;;;30.15;37.58;96849.94;10400088;28;20399;-51
2023/07/02 12:23:27;;;;;;;9.60;5.90;;;;;;;29.98;37.71;96838.19;10369825;28;20110;-48
2023/07/02 12:28:26;;;;;;;8.77;6.13;;;;;;;30.06;40.92;96857.00;10399616;28;20037;-50
2023/07/02 12:33:25;;;;;;;8.70;6.03;;;;;;;29.64;39.29;96839.47;10369440;28;20140;-51
2023/07/02 12:38:24;;;;;;;9.23;6.47;;;;;;;29.55;42.48;96860.88;10390331;28;20147;-51
2023/07/02 12:43:23;;;;;;;11.77;7.80;;;;;;;27.93;45.21;96869.78;10370733;28;20072;-51
2023/07/02 12:48:22;;;;;;;14.35;8.07;;;;;;;27.36;47.23;96874.53;10397535;28;20084;-48
2023/07/02 12:53:21;;;;;;;12.73;8.60;;;;;;;26.69;48.45;96882.69;10385058;28;20038;-51
2023/07/02 12:58:20;;;;;;;11.63;8.10;;;;;;;26.38;49.67;96886.97;10366064;28;20851;-51
2023/07/02 13:03:19;;;;;;;11.00;7.53;;;;;;;26.13;51.17;96902.13;10403131;28;20094;-50
2023/07/02 13:08:18;;;;;;;10.95;6.38;;;;;;;26.08;52.52;96913.13;10382689;28;20396;-50
2023/07/02 13:13:17;;;;;;;10.25;6.57;;;;;;;26.60;51.63;96902.06;10402425;28;20072;-48
2023/07/02 13:18:16;;;;;;;10.60;6.40;;;;;;;26.77;49.90;96901.56;10380459;28;20124;-48
2023/07/02 13:23:15;;;;;;;9.07;5.00;;;;;;;26.87;49.81;96902.53;10400651;28;20031;-51
2023/07/02 13:28:14;;;;;;;8.60;5.80;;;;;;;27.55;47.57;96891.69;10381722;28;20076;-48
2023/07/02 13:33:13;;;;;;;8.23;5.70;;;;;;;28.42;45.26;96891.41;10398932;28;20024;-51
2023/07/02 13:38:12;;;;;;;8.68;5.95;;;;;;;29.16;43.31;96868.88;10380196;28;20033;-49
2023/07/02 13:43:11;;;;;;;6.95;5.45;;;;;;;29.88;42.71;96881.84;10370962;28;20037;-47
2023/07/02 13:48:10;;;;;;;7.60;5.13;;;;;;;30.47;41.01;96868.31;10370793;28;20041;-49
2023/07/02 13:53:09;;;;;;;8.18;5.45;;;;;;;30.96;39.23;96871.59;10385862;28;20025;-47
2023/07/02 13:58:08;;;;;;;7.35;5.18;;;;;;;30.87;38.69;96867.94;10396769;28;21228;-49
2023/07/02 14:03:08;;;;;;;9.55;5.55;;;;;;;30.42;39.89;96858.03;10381690;28;20051;-48
2023/07/02 14:08:09;;;;;;;10.23;6.43;;;;;;;29.75;40.30;96859.03;10369007;28;20115;-49
2023/07/02 14:13:08;;;;;;;12.98;6.47;;;;;;;28.64;42.10;96875.19;10395236;28;20067;-47
2023/07/02 14:18:07;;;;;;;10.88;7.30;;;;;;;27.64;45.87;96893.59;10357123;28;20045;-51
2023/07/02 14:23:06;;;;;;;9.85;5.88;;;;;;;27.02;47.39;96902.25;10325402;28;20021;-51
2023/07/02 14:28:05;;;;;;;12.15;6.53;;;;;;;26.82;48.58;96904.69;10327533;28;20100;-49
2023/07/02 14:33:05;;;;;;;10.27;6.80;;;;;;;26.48;48.76;96880.78;10326920;28;20124;-49
2023/07/02 14:38:04;;;;;;;11.05;7.75;;;;;;;26.30;49.73;96919.47;10325907;28;20053;-51
2023/07/02 14:43:04;;;;;;;12.73;7.43;;;;;;;25.89;50.94;96912.84;10326613;28;20108;-50
2023/07/02 14:48:04;;;;;;;12.85;8.07;;;;;;;25.74;51.77;96923.69;10326467;28;20148;-52
2023/07/02 14:53:03;;;;;;;11.48;7.55;;;;;;;25.65;52.63;96927.03;10325341;28;20160;-51
2023/07/02 14:58:02;;;;;;;13.20;7.38;;;;;;;25.80;52.43;96934.81;10325728;28;20208;-51
2023/07/02 15:03:01;;;;;;;10.75;7.60;;;;;;;25.80;51.96;96929.50;10325758;28;20056;-50
2023/07/02 15:08:00;;;;;;;12.65;7.78;;;;;;;25.64;53.43;96920.00;10323050;28;20099;-51
2023/07/02 15:12:59;;;;;;;10.88;7.75;;;;;;;25.93;54.15;96944.41;10325043;28;20044;-50
2023/07/02 15:17:58;;;;;;;11.85;8.40;;;;;;;25.83;53.38;96947.88;10327284;28;20108;-48
2023/07/02 15:22:57;;;;;;;11.95;7.65;;;;;;;25.58;53.52;96941.75;10312052;28;20128;-51
2023/07/02 15:27:56;;;;;;;11.70;7.88;;;;;;;25.54;53.60;96937.63;10324269;28;20032;-50
2023/07/02 15:32:55;;;;;;;14.90;8.20;;;;;;;25.81;52.86;96920.56;10326325;28;20076;-49
2023/07/02 15:37:54;;;;;;;11.50;7.95;;;;;;;26.21;52.34;96914.88;10323808;28;20067;-52
2023/07/02 15:42:53;;;;;;;12.55;8.35;;;;;;;26.64;50.45;96922.13;10331191;28;20040;-53
2023/07/02 15:47:52;;;;;;;11.02;8.15;;;;;;;27.10;49.50;96913.16;10330733;28;20025;-50
2023/07/02 15:52:51;;;;;;;13.98;8.15;;;;;;;27.45;47.91;96918.25;10329547;28;20025;-52
2023/07/02 15:57:50;;;;;;;11.77;8.98;;;;;;;27.60;47.69;96916.97;10330024;28;20492;-52
2023/07/02 16:02:49;;;;;;;12.18;8.38;;;;;;;27.36;48.29;96909.19;10330512;28;20049;-51
2023/07/02 16:07:48;;;;;;;10.90;7.35;;;;;;;27.25;47.85;96917.22;10328830;28;20116;-51
2023/07/02 16:12:48;;;;;;;9.18;6.55;;;;;;;26.87;48.43;96934.47;10329312;28;20113;-51
2023/07/02 16:17:47;;;;;;;12.00;8.60;;;;;;;26.48;49.13;96944.63;10325869;28;20072;-48
2023/07/02 16:22:46;;;;;;;10.63;8.07;;;;;;;26.30;49.50;96956.69;10323597;28;20120;-48
2023/07/02 16:27:45;;;;;;;12.25;7.32;;;;;;;25.80;51.01;96961.41;10325893;28;20116;-46
2023/07/02 16:32:44;;;;;;;13.23;8.07;;;;;;;25.64;51.65;96972.31;10309893;28;20051;-50
2023/07/02 16:37:43;;;;;;;18.40;8.10;;;;;;;25.52;52.31;96971.38;10326564;28;20041;-52
2023/07/02 16:42:42;;;;;;;11.80;7.70;;;;;;;25.28;53.79;96977.53;10330773;28;20033;-48
2023/07/02 16:47:41;;;;;;;14.73;9.40;;;;;;;25.36;53.60;96982.28;10328665;28;20419;-51
2023/07/02 16:52:40;;;;;;;13.13;8.77;;;;;;;25.62;53.40;96988.41;10327307;28;20055;-49
2023/07/02 16:57:39;;;;;;;10.00;7.20;;;;;;;25.86;53.55;97006.13;10328852;28;20072;-50
2023/07/02 17:02:38;;;;;;;12.85;8.80;;;;;;;25.83;55.02;97012.53;10329687;28;20121;-51
2023/07/02 17:07:37;;;;;;;13.95;9.00;;;;;;;25.56;60.77;96999.47;10329099;28;20029;-49
2023/07/02 17:12:36;;;;;;;15.80;9.65;;;;;;;25.66;63.57;97011.09;10328917;28;20128;-50
2023/07/02 17:17:34;;;;;;;16.27;10.18;;;;;;;25.51;66.17;97009.56;10326228;28;20032;-51
2023/07/02 17:22:33;;;;;;;15.63;10.27;;;;;;;25.39;68.14;97021.94;10329751;28;20533;-50
2023/07/02 17:27:32;;;;;;;15.40;10.57;;;;;;;25.35;67.21;97022.25;10328277;28;20037;-49
2023/07/02 17:32:31;;;;;;;15.68;10.40;;;;;;;25.14;68.58;97014.88;10329872;28;20485;-49
2023/07/02 17:37:30;;;;;;;14.55;10.05;;;;;;;25.04;69.09;97024.47;10327327;28;20436;-51
2023/07/02 17:42:29;;;;;;;13.25;9.63;;;;;;;24.79;69.69;97028.81;10328430;28;20033;-48
2023/07/02 17:47:28;;;;;;;13.32;9.13;;;;;;;24.46;70.92;97024.06;10327421;28;20120;-49
2023/07/02 17:52:27;;;;;;;15.10;9.30;;;;;;;24.28;72.32;97040.25;10328167;28;20041;-51
2023/07/02 17:57:27;;;;;;;11.95;8.40;;;;;;;24.10;72.73;97040.63;10326733;28;20022;-51
2023/07/02 18:02:26;;;;;;;13.48;9.80;;;;;;;23.91;73.55;97048.94;10327463;28;20065;-51
2023/07/02 18:07:25;;;;;;;15.75;9.75;;;;;;;23.56;74.32;97031.78;10327048;28;20033;-51
2023/07/02 18:12:25;;;;;;;16.38;10.27;;;;;;;23.37;74.77;97039.16;10327336;28;20108;-50
2023/07/02 18:17:24;;;;;;;13.05;8.80;;;;;;;23.21;75.76;97061.34;10326771;28;20552;-51
2023/07/02 18:22:23;;;;;;;13.77;9.00;;;;;;;22.92;76.93;97068.44;10327065;28;20100;-48
2023/07/02 18:27:22;;;;;;;15.65;10.07;;;;;;;22.67;78.53;97082.28;10326362;28;20034;-51
2023/07/02 18:32:22;;;;;;;13.30;8.40;;;;;;;22.41;79.87;97096.22;10326428;28;20077;-49
2023/07/02 18:37:23;;;;;;;14.70;8.65;;;;;;;22.26;80.32;97103.25;10325879;28;20128;-50
2023/07/02 18:42:22;;;;;;;12.75;8.95;;;;;;;22.11;79.86;97107.66;10326720;28;20512;-51
2023/07/02 18:47:21;;;;;;;12.88;8.75;;;;;;;22.00;79.80;97100.34;10325603;28;20369;-49
2023/07/02 18:52:20;;;;;;;16.13;9.77;;;;;;;21.93;81.62;97110.38;10326208;28;20520;-49
2023/07/02 18:57:19;;;;;;;16.08;10.05;;;;;;;21.83;81.89;97119.78;10324613;28;20100;-49
2023/07/02 19:02:18;;;;;;;14.57;9.25;;;;;;;21.70;82.26;97132.78;10325052;28;20116;-49
2023/07/02 19:07:18;;;;;;;14.48;9.70;;;;;;;21.60;82.99;97141.31;10324960;28;20049;-49
2023/07/02 19:12:17;;;;;;;16.70;10.10;;;;;;;21.32;83.25;97116.44;10325005;28;20076;-49
2023/07/02 19:17:17;;;;;;;20.23;12.07;;;;;;;21.37;83.62;97145.22;10324284;28;20045;-48
2023/07/02 19:22:19;;;;;;;18.30;10.68;;;;;;;21.27;84.00;97150.16;10324660;28;20103;-49
2023/07/02 19:27:18;;;;;;;16.70;10.57;;;;;;;21.11;84.36;97158.00;10324729;28;20116;-51
2023/07/02 19:32:17;;;;;;;16.83;10.82;;;;;;;21.01;84.47;97162.03;10323309;28;20072;-48
2023/07/02 19:37:16;;;;;;;14.25;9.98;;;;;;;20.92;84.90;97160.75;10323825;28;20077;-49
2023/07/02 19:42:15;;;;;;;16.05;10.07;;;;;;;20.83;85.17;97171.78;10323260;28;20044;-49
2023/07/02 19:47:14;;;;;;;14.55;9.35;;;;;;;20.70;85.14;97167.13;10324001;28;20500;-51
2023/07/02 19:52:15;;;;;;;18.27;9.40;;;;;;;20.65;85.44;97161.22;10322636;28;20405;-52
2023/07/02 19:57:15;;;;;;;14.00;9.23;;;;;;;20.57;85.82;97166.03;10323750;28;20116;-51
2023/07/02 20:02:21;;;;;;;14.43;9.07;;;;;;;20.44;85.34;97178.13;10323786;28;20061;-54
2023/07/02 20:07:20;;;;;;;16.98;9.25;;;;;;;20.38;85.08;97159.97;10322901;28;20076;-50
2023/07/02 20:12:19;;;;;;;12.77;8.75;;;;;;;20.01;85.27;97114.38;10323512;28;20481;-50
2023/07/02 20:17:18;;;;;;;14.70;9.63;;;;;;;20.16;85.93;97153.09;10323974;28;20029;-49
2023/07/02 20:22:19;;;;;;;16.52;10.73;;;;;;;20.14;87.67;97170.78;10325200;28;20088;-47
2023/07/02 20:27:19;;;;;;;18.13;11.60;;;;;;;20.07;88.25;97170.25;10325926;28;20453;-49
2023/07/02 20:32:20;;;;;;;15.32;11.10;;;;;;;20.04;88.89;97174.78;10327017;28;20541;-49
2023/07/02 20:37:21;;;;;;;18.00;12.73;;;;;;;19.94;89.57;97181.44;10326217;28;20489;-48
2023/07/02 20:42:21;;;;;;;18.73;12.07;;;;;;;19.83;90.45;97188.03;10325782;28;20068;-48
2023/07/02 20:47:23;;;;;;;20.05;13.38;;;;;;;19.76;90.98;97178.72;10326563;28;20069;-49
2023/07/02 20:52:22;;;;;;;20.42;13.20;;;;;;;19.72;91.25;97171.94;10326892;28;20081;-47
2023/07/02 20:57:22;;;;;;;24.30;13.75;;;;;;;19.66;91.58;97190.63;10325199;28;20080;-51
2023/07/02 21:02:21;;;;;;;18.90;12.43;;;;;;;19.60;91.37;97183.00;10326670;28;20073;-48
2023/07/02 21:07:19;;;;;;;14.82;10.98;;;;;;;19.49;91.67;97190.53;10325893;28;20041;-51
2023/07/02 21:12:18;;;;;;;16.23;10.48;;;;;;;19.38;91.39;97194.50;10325552;28;20025;-50
2023/07/02 21:17:18;;;;;;;14.98;10.38;;;;;;;19.32;91.31;97205.31;10322462;28;20030;-47
2023/07/02 21:22:17;;;;;;;16.67;11.25;;;;;;;19.21;91.30;97199.66;10328319;28;20532;-49
2023/07/02 21:27:16;;;;;;;17.48;12.63;;;;;;;19.02;92.78;97168.94;10329648;28;20040;-50
2023/07/02 21:32:15;;;;;;;20.77;13.40;;;;;;;19.13;93.08;97201.78;10328989;28;20836;-48
2023/07/02 21:37:14;;;;;;;21.27;13.57;;;;;;;19.03;94.00;97207.44;10328907;28;20428;-47
2023/07/02 21:42:13;;;;;;;21.27;14.25;;;;;;;19.05;93.87;97206.53;10328521;28;20031;-50
2023/07/02 21:47:12;;;;;;;19.92;14.50;;;;;;;18.94;94.68;97197.31;10329111;28;20038;-50
2023/07/02 21:52:11;;;;;;;23.80;14.93;;;;;;;18.90;95.16;97198.41;10328273;28;20105;-48
2023/07/02 21:57:10;;;;;;;25.80;15.32;;;;;;;18.84;95.87;97216.19;10327656;28;20026;-50
2023/07/02 22:02:09;;;;;;;21.92;14.07;;;;;;;18.85;95.73;97237.16;10328042;28;20021;-48
2023/07/02 22:07:08;;;;;;;18.77;12.95;;;;;;;18.82;95.81;97219.72;10327276;28;20120;-48
2023/07/02 22:12:08;;;;;;;21.05;14.40;;;;;;;18.55;95.61;97176.19;10327356;28;20033;-50
2023/07/02 22:17:07;;;;;;;24.80;14.88;;;;;;;18.75;95.61;97214.81;10324546;28;20478;-51
2023/07/02 22:22:07;;;;;;;18.00;12.73;;;;;;;18.72;95.38;97223.69;10321246;28;20231;-49
2023/07/02 22:27:07;;;;;;;17.92;12.07;;;;;;;18.74;94.98;97226.25;10323779;28;20049;-51
2023/07/02 22:32:07;;;;;;;19.20;11.73;;;;;;;18.76;94.57;97227.03;10325995;28;20049;-49
2023/07/02 22:37:06;;;;;;;19.25;12.73;;;;;;;18.74;94.59;97228.88;10327222;28;20477;-48
2023/07/02 22:42:05;;;;;;;19.48;13.05;;;;;;;18.74;94.49;97215.75;10327201;28;21148;-48
2023/07/02 22:47:04;;;;;;;19.83;13.13;;;;;;;18.76;94.38;97220.00;10326891;28;20061;-51
2023/07/02 22:52:03;;;;;;;22.30;13.02;;;;;;;18.60;94.76;97219.75;10326963;28;20152;-51
2023/07/02 22:57:03;;;;;;;22.65;13.80;;;;;;;17.35;96.36;97050.66;10326156;28;20692;-49